Time;durP1;ratioP1;P1;durP2;ratioP2;P2;SDS_P1;SDS_P2;PMS_P1;PMS_P2;Temp;Humidity;BMP_temperature;BMP_pressure;BME280_temperature;BME280_humidity;BME280_pressure;Samples;Min_cycle;Max_cycle;Signal;HPM_P1;HPM_P2
2022/09/24 00:00:29;;;;;;;5.95;3.50;;;15.10;99.90;;;;;;5003389;28;20507;-84
2022/09/24 00:02:55;;;;;;;5.93;3.22;;;15.10;99.90;;;;;;4989521;28;20022;-84
2022/09/24 00:05:21;;;;;;;5.53;2.90;;;15.10;99.90;;;;;;5001993;28;20935;-84
2022/09/24 00:07:46;;;;;;;4.07;2.85;;;15.10;99.90;;;;;;5003522;28;20018;-84
2022/09/24 00:10:12;;;;;;;5.90;3.15;;;15.10;99.90;;;;;;4999755;28;20117;-84
2022/09/24 00:12:38;;;;;;;7.82;3.08;;;15.10;99.90;;;;;;4993797;28;20096;-85
2022/09/24 00:15:04;;;;;;;8.05;3.22;;;15.10;99.90;;;;;;5001497;28;20022;-85
2022/09/24 00:17:30;;;;;;;4.15;3.00;;;15.20;99.90;;;;;;4983719;28;20536;-83
2022/09/24 00:19:55;;;;;;;4.38;3.05;;;15.10;99.90;;;;;;4994633;28;20057;-84
2022/09/24 00:22:21;;;;;;;5.57;3.00;;;15.10;99.90;;;;;;4976897;28;20027;-85
2022/09/24 00:27:30;;;;;;;5.25;3.60;;;15.10;99.90;;;;;;4991363;28;20048;-84
2022/09/24 00:29:56;;;;;;;5.57;2.95;;;15.10;99.90;;;;;;5006772;28;20030;-84
2022/09/24 00:32:23;;;;;;;4.63;2.80;;;15.10;99.90;;;;;;4995688;28;20030;-85
2022/09/24 00:34:50;;;;;;;5.00;2.92;;;15.10;99.90;;;;;;5009579;28;20034;-85
2022/09/24 00:37:18;;;;;;;6.95;3.42;;;15.00;99.90;;;;;;4995215;28;20026;-85
2022/09/24 00:39:44;;;;;;;4.70;2.92;;;15.10;99.90;;;;;;4995899;28;20022;-86
2022/09/24 00:42:11;;;;;;;4.88;2.90;;;15.10;99.90;;;;;;4973281;28;20042;-86
2022/09/24 00:44:51;;;;;;;5.03;3.00;;;15.10;99.90;;;;;;4991718;28;20092;-85
2022/09/24 00:47:38;;;;;;;5.53;3.00;;;15.10;99.90;;;;;;4996483;28;20041;-85
2022/09/24 00:50:30;;;;;;;4.15;3.03;;;15.10;99.90;;;;;;5006344;28;20468;-85
2022/09/24 00:52:59;;;;;;;3.95;2.97;;;15.10;99.90;;;;;;4999707;28;20038;-86
2022/09/24 00:55:26;;;;;;;5.78;2.92;;;15.10;99.90;;;;;;4993840;28;20057;-83
2022/09/24 00:57:57;;;;;;;4.20;2.72;;;15.10;99.90;;;;;;4990905;28;20026;-85
2022/09/24 01:00:23;;;;;;;5.25;2.88;;;15.00;99.90;;;;;;4993615;28;20023;-85
2022/09/24 01:02:55;;;;;;;6.25;3.50;;;15.10;99.90;;;;;;4998185;28;20030;-84
2022/09/24 01:05:21;;;;;;;7.00;3.25;;;15.10;99.90;;;;;;4997547;28;20069;-84
2022/09/24 01:07:47;;;;;;;4.30;3.42;;;15.10;99.90;;;;;;5001240;28;20053;-85
2022/09/24 01:10:46;;;;;;;4.43;3.25;;;15.10;99.90;;;;;;5024627;28;20041;-84
2022/09/24 01:13:26;;;;;;;6.25;3.97;;;15.10;99.90;;;;;;4998609;28;20395;-85
2022/09/24 01:16:02;;;;;;;8.10;3.17;;;15.20;99.90;;;;;;4996046;28;20031;-85
2022/09/24 01:18:41;;;;;;;5.60;3.97;;;15.10;99.90;;;;;;5000587;28;20113;-85
2022/09/24 01:21:25;;;;;;;4.93;3.50;;;15.10;99.90;;;;;;4997760;28;20030;-85
2022/09/24 01:24:02;;;;;;;7.47;3.42;;;15.10;99.90;;;;;;4997384;28;20054;-85
2022/09/24 01:27:05;;;;;;;5.75;3.45;;;15.10;99.90;;;;;;5035248;28;20048;-85
2022/09/24 01:29:52;;;;;;;6.63;4.15;;;15.10;99.90;;;;;;4994884;28;20037;-84
2022/09/24 01:32:33;;;;;;;5.95;3.20;;;15.10;99.90;;;;;;4994771;28;20029;-85
2022/09/24 01:35:04;;;;;;;4.30;3.10;;;15.00;99.90;;;;;;5005658;28;20109;-84
2022/09/24 01:37:33;;;;;;;4.65;3.55;;;15.00;99.90;;;;;;5001359;28;20065;-85
2022/09/24 01:40:01;;;;;;;4.45;3.25;;;15.00;99.90;;;;;;4990830;28;20041;-84
2022/09/24 01:42:29;;;;;;;4.03;3.13;;;15.00;99.90;;;;;;4979628;28;20061;-84
2022/09/24 01:44:57;;;;;;;7.15;3.50;;;15.00;99.90;;;;;;4993958;28;20402;-84
2022/09/24 01:47:30;;;;;;;3.95;2.92;;;15.00;99.90;;;;;;4999271;28;20038;-84
2022/09/24 01:49:55;;;;;;;4.88;3.67;;;15.00;99.90;;;;;;4999182;28;20026;-84
2022/09/24 01:52:27;;;;;;;4.80;3.20;;;15.00;99.90;;;;;;5031154;28;20038;-84
2022/09/24 01:54:55;;;;;;;4.38;2.95;;;15.00;99.90;;;;;;4996808;28;20117;-85
2022/09/24 01:57:28;;;;;;;6.78;3.20;;;15.00;99.90;;;;;;5004199;28;20491;-84
2022/09/24 02:00:04;;;;;;;5.60;3.42;;;15.00;99.90;;;;;;4998923;28;20026;-84
2022/09/24 02:02:29;;;;;;;4.05;2.78;;;14.90;99.90;;;;;;4995659;28;20026;-85
2022/09/24 02:05:15;;;;;;;5.20;3.20;;;14.90;99.90;;;;;;4999703;28;20034;-85
2022/09/24 02:07:48;;;;;;;5.03;3.22;;;14.90;99.90;;;;;;5002997;28;20030;-85
2022/09/24 02:10:17;;;;;;;3.97;2.90;;;14.90;99.90;;;;;;4999729;28;20092;-85
2022/09/24 02:12:47;;;;;;;4.35;2.85;;;14.90;99.90;;;;;;4998936;28;20030;-85
2022/09/24 02:15:20;;;;;;;4.22;3.10;;;14.90;99.90;;;;;;5007939;28;20127;-85
2022/09/24 02:17:53;;;;;;;6.88;3.25;;;14.80;99.90;;;;;;5000975;28;20022;-85
2022/09/24 02:20:22;;;;;;;4.32;3.00;;;14.90;99.90;;;;;;5007199;28;20037;-85
2022/09/24 02:22:50;;;;;;;4.47;2.83;;;14.90;99.90;;;;;;5005890;28;20030;-86
2022/09/24 02:25:49;;;;;;;5.53;2.88;;;14.80;99.90;;;;;;5046197;22;20307;-86
2022/09/24 02:28:16;;;;;;;4.15;2.92;;;14.80;99.90;;;;;;5048430;28;20056;-88
2022/09/24 02:30:50;;;;;;;3.95;2.72;;;14.90;99.90;;;;;;5048467;28;20020;-88
2022/09/24 02:36:03;;;;;;;5.05;3.40;;;14.90;99.90;;;;;;5067585;28;20090;-87
2022/09/24 02:38:29;;;;;;;4.68;3.22;;;14.90;99.90;;;;;;5044648;28;20024;-88
2022/09/24 02:40:55;;;;;;;4.35;2.80;;;14.80;99.90;;;;;;5052783;28;20376;-87
2022/09/24 02:43:21;;;;;;;5.28;3.28;;;14.80;99.90;;;;;;5034978;28;20395;-88
2022/09/24 02:45:46;;;;;;;6.03;3.03;;;14.90;99.90;;;;;;5050632;28;20051;-87
2022/09/24 02:48:12;;;;;;;4.68;2.97;;;14.80;99.90;;;;;;5043087;28;20025;-88
2022/09/24 02:50:37;;;;;;;6.22;3.20;;;14.80;99.90;;;;;;5040866;28;20055;-87
2022/09/24 02:53:03;;;;;;;8.18;4.65;;;14.90;99.90;;;;;;5063170;28;20504;-87
2022/09/24 02:55:29;;;;;;;8.90;4.97;;;14.90;99.90;;;;;;5045106;28;20047;-87
2022/09/24 02:57:59;;;;;;;7.03;4.32;;;15.00;99.90;;;;;;5058681;28;20021;-88
2022/09/24 03:00:24;;;;;;;5.28;4.20;;;14.90;99.90;;;;;;5047946;28;20024;-88
2022/09/24 03:02:50;;;;;;;7.28;4.57;;;14.90;99.90;;;;;;5046150;28;20536;-88
2022/09/24 03:05:17;;;;;;;9.20;4.60;;;15.00;99.90;;;;;;5048219;28;20024;-88
2022/09/24 03:07:45;;;;;;;5.97;3.83;;;15.00;99.90;;;;;;5070943;28;20079;-89
2022/09/24 03:10:11;;;;;;;7.15;4.13;;;14.90;99.90;;;;;;5051792;28;20028;-87
2022/09/24 03:12:37;;;;;;;6.97;3.90;;;14.90;99.90;;;;;;5049109;28;20028;-88
2022/09/24 03:15:03;;;;;;;5.70;3.75;;;14.90;99.90;;;;;;5049991;28;20038;-87
2022/09/24 03:17:29;;;;;;;4.80;3.75;;;14.90;99.90;;;;;;5066023;28;20124;-88
2022/09/24 03:19:55;;;;;;;5.75;3.95;;;14.90;99.90;;;;;;5041140;28;20029;-88
2022/09/24 03:22:21;;;;;;;5.22;3.92;;;14.80;99.90;;;;;;5053701;28;20025;-88
2022/09/24 03:24:46;;;;;;;8.00;3.78;;;14.80;99.90;;;;;;5053024;28;20033;-88
2022/09/24 03:27:12;;;;;;;5.32;3.50;;;14.80;99.90;;;;;;5043655;28;20032;-88
2022/09/24 03:32:22;;;;;;;;;;;14.80;99.90;;;;;;5059468;28;20048;-87
2022/09/24 03:34:47;;;;;;;6.10;3.90;;;14.80;99.90;;;;;;5040661;28;19912;-89
2022/09/24 03:37:13;;;;;;;5.95;4.25;;;14.80;99.90;;;;;;5065211;28;20389;-87
2022/09/24 03:39:39;;;;;;;5.70;4.15;;;14.80;99.90;;;;;;5039242;28;20028;-88
2022/09/24 03:42:04;;;;;;;6.10;3.78;;;14.70;99.90;;;;;;5017396;28;20029;-88
2022/09/24 03:44:30;;;;;;;7.25;4.43;;;14.70;99.90;;;;;;5049691;28;20029;-87
2022/09/24 03:46:55;;;;;;;5.55;3.75;;;14.80;99.90;;;;;;5062436;28;20082;-88
2022/09/24 03:49:22;;;;;;;6.22;4.18;;;14.80;99.90;;;;;;5065266;28;20398;-89
2022/09/24 03:51:49;;;;;;;6.63;4.30;;;14.80;99.90;;;;;;5036868;28;20397;-87
2022/09/24 03:54:15;;;;;;;6.28;3.45;;;14.80;99.90;;;;;;5058122;28;20029;-88
2022/09/24 03:56:42;;;;;;;5.50;3.08;;;14.80;99.90;;;;;;5065584;28;20035;-88
2022/09/24 03:59:10;;;;;;;5.53;4.05;;;14.80;99.90;;;;;;5055239;28;20021;-87
2022/09/24 04:01:37;;;;;;;4.63;3.53;;;14.80;99.90;;;;;;5048083;28;20040;-88
2022/09/24 04:04:03;;;;;;;4.55;3.35;;;14.80;99.90;;;;;;5040808;28;20383;-88
2022/09/24 04:06:29;;;;;;;4.82;3.42;;;14.80;99.90;;;;;;5044727;28;20033;-88
2022/09/24 04:08:55;;;;;;;5.05;3.60;;;14.80;99.90;;;;;;5046737;28;20028;-88
2022/09/24 04:11:22;;;;;;;5.18;3.83;;;14.70;99.90;;;;;;5051680;28;20036;-88
2022/09/24 04:13:52;;;;;;;5.95;3.47;;;14.70;99.90;;;;;;5043727;28;20032;-88
2022/09/24 04:16:17;;;;;;;4.90;3.92;;;14.80;99.90;;;;;;5050922;28;20021;-86
2022/09/24 04:18:43;;;;;;;6.75;3.80;;;14.80;99.90;;;;;;5043908;28;20017;-88
2022/09/24 04:21:09;;;;;;;6.05;3.80;;;14.80;99.90;;;;;;5051523;28;20032;-85
2022/09/24 04:23:34;;;;;;;7.68;4.32;;;14.80;99.90;;;;;;5051171;28;20032;-87
2022/09/24 04:26:01;;;;;;;8.55;3.65;;;14.80;99.90;;;;;;5050344;28;20016;-88
2022/09/24 04:28:28;;;;;;;4.85;3.60;;;14.80;99.90;;;;;;5047977;28;20491;-89
2022/09/24 04:30:54;;;;;;;4.80;3.33;;;14.80;99.90;;;;;;5051421;28;20036;-88
2022/09/24 04:33:20;;;;;;;5.47;4.18;;;14.80;99.90;;;;;;5046983;28;20116;-88
2022/09/24 04:35:46;;;;;;;6.75;3.70;;;14.80;99.90;;;;;;5052281;28;20635;-87
2022/09/24 04:38:12;;;;;;;5.07;3.55;;;14.80;99.90;;;;;;5053930;28;20054;-87
2022/09/24 04:40:38;;;;;;;6.25;3.70;;;14.80;99.90;;;;;;5052663;28;20021;-88
2022/09/24 04:43:05;;;;;;;6.32;3.33;;;14.80;99.90;;;;;;5025231;28;20052;-89
2022/09/24 04:45:32;;;;;;;5.82;4.32;;;14.80;99.90;;;;;;5066994;28;20036;-88
2022/09/24 04:47:58;;;;;;;4.95;3.78;;;14.80;99.90;;;;;;5043360;28;20081;-88
2022/09/24 04:50:28;;;;;;;4.45;3.17;;;14.70;99.90;;;;;;5072128;28;20120;-88
2022/09/24 04:52:54;;;;;;;5.97;4.00;;;14.80;99.90;;;;;;5047034;28;20016;-87
2022/09/24 04:55:21;;;;;;;6.00;3.90;;;14.80;99.90;;;;;;5070604;28;20138;-87
2022/09/24 04:57:47;;;;;;;5.75;4.38;;;14.80;99.90;;;;;;5047272;28;20025;-88
2022/09/24 05:00:16;;;;;;;5.38;3.80;;;14.80;99.90;;;;;;5048583;28;20124;-87
2022/09/24 05:02:42;;;;;;;5.80;3.88;;;14.80;99.90;;;;;;5046651;28;20066;-88
2022/09/24 05:05:08;;;;;;;7.10;3.20;;;14.80;99.90;;;;;;5046780;28;20048;-89
2022/09/24 05:07:35;;;;;;;7.65;4.07;;;14.80;99.90;;;;;;5072634;28;20786;-88
2022/09/24 05:10:00;;;;;;;5.93;3.50;;;14.80;99.90;;;;;;5054373;28;20090;-88
2022/09/24 05:12:26;;;;;;;4.28;3.30;;;14.80;99.90;;;;;;5048602;28;20481;-88
2022/09/24 05:14:52;;;;;;;5.03;3.78;;;14.70;99.90;;;;;;5066151;28;20028;-88
2022/09/24 05:17:17;;;;;;;4.55;3.60;;;14.70;99.90;;;;;;5067787;28;20025;-88
2022/09/24 05:19:43;;;;;;;5.53;3.58;;;14.70;99.90;;;;;;5048046;28;20165;-88
2022/09/24 05:22:09;;;;;;;6.75;3.40;;;14.70;99.90;;;;;;5039625;28;20176;-88
2022/09/24 05:24:34;;;;;;;4.55;3.47;;;14.80;99.90;;;;;;5046388;28;20024;-84
2022/09/24 05:27:09;;;;;;;7.47;4.22;;;14.70;99.90;;;;;;5062104;28;20494;-87
2022/09/24 05:29:41;;;;;;;3.95;3.05;;;14.70;99.90;;;;;;5048104;28;20040;-88
2022/09/24 05:32:12;;;;;;;5.47;4.00;;;14.70;99.90;;;;;;5065000;28;20059;-88
2022/09/24 05:34:40;;;;;;;5.13;3.45;;;14.80;99.90;;;;;;5066688;28;20082;-87
2022/09/24 05:37:06;;;;;;;11.50;3.88;;;14.80;99.90;;;;;;5069861;28;20028;-88
2022/09/24 05:39:32;;;;;;;4.88;3.17;;;14.80;99.90;;;;;;5050159;28;20048;-88
2022/09/24 05:41:57;;;;;;;4.88;3.72;;;14.70;99.90;;;;;;5055177;28;20056;-88
2022/09/24 05:44:23;;;;;;;5.95;3.95;;;14.70;99.90;;;;;;5030571;28;20052;-87
2022/09/24 05:46:50;;;;;;;7.03;4.00;;;14.70;99.90;;;;;;5052065;28;20040;-89
2022/09/24 05:49:22;;;;;;;6.55;3.72;;;14.70;99.90;;;;;;5061151;28;20040;-88
2022/09/24 05:51:49;;;;;;;5.35;4.15;;;14.70;99.90;;;;;;5054126;28;20060;-88
2022/09/24 05:54:15;;;;;;;6.32;4.13;;;14.70;99.90;;;;;;5045860;28;20040;-87
2022/09/24 05:56:41;;;;;;;8.65;4.57;;;14.70;99.90;;;;;;5043847;28;20017;-88
2022/09/24 05:59:07;;;;;;;5.82;3.95;;;14.70;99.90;;;;;;5063326;28;20071;-88
2022/09/24 06:01:33;;;;;;;5.25;3.78;;;14.60;99.90;;;;;;5044453;28;20509;-88
2022/09/24 06:03:59;;;;;;;4.78;3.45;;;14.60;99.90;;;;;;5040460;28;20028;-88
2022/09/24 06:06:25;;;;;;;6.45;4.53;;;14.60;99.90;;;;;;5039161;28;20033;-87
2022/09/24 06:08:51;;;;;;;7.20;4.20;;;14.60;99.90;;;;;;5046564;28;20048;-88
2022/09/24 06:11:17;;;;;;;7.93;4.47;;;14.60;99.90;;;;;;5067238;28;20033;-87
2022/09/24 06:13:43;;;;;;;7.70;4.75;;;14.60;99.90;;;;;;5045969;28;20082;-88
2022/09/24 06:16:11;;;;;;;6.13;3.92;;;14.60;99.90;;;;;;5053330;28;20017;-86
2022/09/24 06:18:41;;;;;;;7.55;4.28;;;14.60;99.90;;;;;;5066229;28;20028;-88
2022/09/24 06:21:25;;;;;;;7.57;4.53;;;14.60;99.90;;;;;;5038546;28;20075;-87
2022/09/24 06:23:51;;;;;;;5.88;4.20;;;14.60;99.90;;;;;;5063462;28;20139;-89
2022/09/24 06:26:17;;;;;;;7.65;4.43;;;14.70;99.90;;;;;;5042566;28;20116;-89
2022/09/24 06:28:43;;;;;;;5.82;4.25;;;14.60;99.90;;;;;;5050606;28;20410;-88
2022/09/24 06:31:10;;;;;;;6.63;4.13;;;14.60;99.90;;;;;;5044297;28;20025;-87
2022/09/24 06:33:37;;;;;;;5.80;4.10;;;14.60;99.90;;;;;;5042251;28;20029;-85
2022/09/24 06:36:03;;;;;;;5.32;3.85;;;14.60;99.90;;;;;;5047798;28;20078;-89
2022/09/24 06:38:30;;;;;;;6.50;4.70;;;14.60;99.90;;;;;;5066359;28;20021;-86
2022/09/24 06:41:00;;;;;;;7.68;3.95;;;14.60;99.90;;;;;;5046225;28;20071;-87
2022/09/24 06:43:26;;;;;;;6.38;3.97;;;14.60;99.90;;;;;;5023837;28;20024;-88
2022/09/24 06:45:56;;;;;;;7.57;4.22;;;14.60;99.90;;;;;;5051210;28;20031;-88
2022/09/24 06:48:22;;;;;;;5.57;3.90;;;14.60;99.90;;;;;;5055534;28;20027;-87
2022/09/24 06:50:49;;;;;;;7.30;4.63;;;14.60;99.90;;;;;;5050693;28;20017;-88
2022/09/24 06:53:15;;;;;;;6.50;4.13;;;14.60;99.90;;;;;;5041979;28;20037;-88
2022/09/24 06:55:41;;;;;;;5.85;3.90;;;14.60;99.90;;;;;;5049275;28;20082;-86
2022/09/24 06:58:12;;;;;;;8.15;4.28;;;14.70;99.90;;;;;;5065138;28;20103;-87
2022/09/24 07:00:38;;;;;;;6.15;3.58;;;14.60;99.90;;;;;;5042403;28;20077;-87
2022/09/24 07:03:05;;;;;;;6.57;4.20;;;14.60;99.90;;;;;;5046629;28;20020;-88
2022/09/24 07:05:32;;;;;;;7.38;4.10;;;14.60;99.90;;;;;;5043090;28;20358;-88
2022/09/24 07:07:58;;;;;;;5.85;4.47;;;14.60;99.90;;;;;;5067048;28;20539;-89
2022/09/24 07:10:25;;;;;;;4.78;3.72;;;14.60;99.90;;;;;;5050482;28;20047;-89
2022/09/24 07:12:51;;;;;;;6.90;4.05;;;14.60;99.90;;;;;;5046241;28;20029;-88
2022/09/24 07:15:16;;;;;;;6.25;4.25;;;14.50;99.90;;;;;;5042571;28;20165;-88
2022/09/24 07:17:42;;;;;;;6.55;4.80;;;14.60;99.90;;;;;;5045011;28;20546;-87
2022/09/24 07:20:13;;;;;;;5.47;4.03;;;14.60;99.90;;;;;;5062358;28;20025;-88
2022/09/24 07:22:43;;;;;;;6.55;4.43;;;14.60;99.90;;;;;;5053613;28;20032;-89
2022/09/24 07:25:11;;;;;;;7.38;4.25;;;14.60;99.90;;;;;;5044190;28;20119;-88
2022/09/24 07:27:37;;;;;;;6.22;4.72;;;14.60;99.90;;;;;;5063596;28;20035;-89
2022/09/24 07:30:07;;;;;;;6.95;3.78;;;14.60;99.90;;;;;;5052931;28;20170;-89
2022/09/24 07:32:33;;;;;;;7.78;4.03;;;14.60;99.90;;;;;;5048162;28;20079;-88
2022/09/24 07:34:59;;;;;;;8.13;4.53;;;14.60;99.90;;;;;;5044556;28;20024;-87
2022/09/24 07:37:25;;;;;;;7.60;4.15;;;14.60;99.90;;;;;;5051337;28;20024;-88
2022/09/24 07:39:50;;;;;;;8.02;4.80;;;14.60;99.90;;;;;;5070199;28;20020;-87
2022/09/24 07:42:16;;;;;;;5.60;3.92;;;14.60;99.90;;;;;;5050108;28;20082;-88
2022/09/24 07:44:42;;;;;;;5.78;4.55;;;14.60;99.90;;;;;;5024315;28;20150;-88
2022/09/24 07:47:33;;;;;;;6.30;4.50;;;14.60;99.90;;;;;;5046827;28;20119;-87
2022/09/24 07:49:59;;;;;;;8.18;4.70;;;14.70;99.90;;;;;;5048355;28;20028;-88
2022/09/24 07:52:24;;;;;;;8.20;4.80;;;14.70;99.90;;;;;;5052743;28;20085;-87
2022/09/24 07:54:54;;;;;;;6.60;3.90;;;14.60;99.90;;;;;;5050796;28;20742;-88
2022/09/24 07:57:20;;;;;;;8.02;4.80;;;14.60;99.90;;;;;;5061335;28;20091;-88
2022/09/24 07:59:50;;;;;;;6.22;4.40;;;14.60;99.90;;;;;;5045161;28;20028;-88
2022/09/24 08:02:23;;;;;;;7.65;5.13;;;14.60;99.90;;;;;;5041719;28;20024;-88
2022/09/24 08:04:49;;;;;;;6.72;4.45;;;14.60;99.90;;;;;;5035352;28;20025;-87
2022/09/24 08:07:15;;;;;;;9.20;5.30;;;14.60;99.90;;;;;;5060215;28;20075;-86
2022/09/24 08:09:41;;;;;;;7.07;4.55;;;14.60;99.90;;;;;;5066828;28;20025;-87
2022/09/24 08:12:07;;;;;;;6.57;4.93;;;14.60;99.90;;;;;;5045368;28;20033;-88
2022/09/24 08:14:32;;;;;;;7.30;4.60;;;14.60;99.90;;;;;;5062976;28;20108;-87
2022/09/24 08:16:58;;;;;;;9.32;4.90;;;14.60;99.90;;;;;;5044745;28;20648;-88
2022/09/24 08:19:24;;;;;;;8.40;4.97;;;14.60;99.90;;;;;;5041772;28;21228;-88
2022/09/24 08:21:49;;;;;;;6.55;4.72;;;14.60;99.90;;;;;;5041474;28;20028;-88
2022/09/24 08:24:16;;;;;;;6.30;4.68;;;14.60;99.90;;;;;;5048814;28;20033;-88
2022/09/24 08:26:41;;;;;;;8.98;5.20;;;14.60;99.90;;;;;;5050572;28;20040;-88
2022/09/24 08:29:07;;;;;;;8.73;5.32;;;14.60;99.90;;;;;;5045198;28;20025;-87
2022/09/24 08:31:33;;;;;;;9.38;5.63;;;14.60;99.90;;;;;;5038721;28;20119;-88
2022/09/24 08:34:00;;;;;;;7.35;5.07;;;14.70;99.90;;;;;;5069833;28;20505;-87
2022/09/24 08:36:26;;;;;;;7.55;5.28;;;14.60;99.90;;;;;;5044666;28;20397;-87
2022/09/24 08:38:56;;;;;;;7.22;5.13;;;14.60;99.90;;;;;;5047433;28;20025;-86
2022/09/24 08:41:43;;;;;;;8.60;5.20;;;14.60;99.90;;;;;;5040495;28;20020;-88
2022/09/24 08:47:21;;;;;;;11.18;5.47;;;14.60;99.90;;;;;;5021351;28;20025;-87
2022/09/24 08:47:24;;;;;;;6.75;5.60;;;14.60;99.90;;;;;;5060251;28;20036;-85
2022/09/24 08:50:11;;;;;;;8.10;5.07;;;14.60;99.90;;;;;;5060819;28;20029;-86
2022/09/24 08:53:15;;;;;;;10.25;5.47;;;14.60;99.90;;;;;;5043766;28;20036;-86
2022/09/24 08:55:48;;;;;;;7.45;5.75;;;14.60;99.90;;;;;;5042729;28;20059;-86
2022/09/24 08:58:16;;;;;;;9.45;5.60;;;14.60;99.90;;;;;;5046206;28;20079;-86
2022/09/24 09:01:00;;;;;;;7.95;5.80;;;14.50;99.90;;;;;;5057660;28;20029;-87
2022/09/24 09:03:30;;;;;;;8.50;5.32;;;14.50;99.90;;;;;;5048153;28;20104;-85
2022/09/24 09:06:02;;;;;;;7.80;5.00;;;14.60;99.90;;;;;;5041732;28;20527;-88
2022/09/24 09:09:00;;;;;;;9.65;6.07;;;14.60;99.90;;;;;;5041041;28;20037;-86
2022/09/24 09:11:31;;;;;;;8.70;4.60;;;14.60;99.90;;;;;;5046826;28;20024;-87
2022/09/24 09:14:29;;;;;;;7.68;5.15;;;14.60;99.90;;;;;;5072499;28;20089;-85
2022/09/24 09:16:57;;;;;;;10.32;5.85;;;14.60;99.90;;;;;;5045689;28;20033;-85
2022/09/24 09:19:29;;;;;;;8.77;5.53;;;14.60;99.90;;;;;;5046431;28;20032;-85
2022/09/24 09:22:10;;;;;;;8.25;5.85;;;14.60;99.90;;;;;;5046115;28;20148;-85
2022/09/24 09:24:48;;;;;;;8.65;5.13;;;14.60;99.90;;;;;;5042941;28;20025;-88
2022/09/24 09:27:15;;;;;;;8.43;5.35;;;14.60;99.90;;;;;;5047017;28;20032;-85
2022/09/24 09:29:50;;;;;;;10.07;5.15;;;14.60;99.90;;;;;;5050959;28;20394;-86
2022/09/24 09:32:41;;;;;;;9.02;5.72;;;14.50;99.90;;;;;;5070047;28;20024;-85
2022/09/24 09:35:22;;;;;;;13.02;5.60;;;14.60;99.90;;;;;;5067777;28;20097;-88
2022/09/24 09:38:26;;;;;;;9.52;6.15;;;14.60;99.90;;;;;;5049494;28;20402;-84
2022/09/24 09:41:01;;;;;;;9.07;5.88;;;14.60;99.90;;;;;;5066711;28;20027;-84
2022/09/24 09:43:27;;;;;;;9.65;5.82;;;14.60;99.90;;;;;;5042320;28;20506;-87
2022/09/24 09:46:13;;;;;;;8.18;5.03;;;14.60;99.90;;;;;;5020004;28;20105;-87
2022/09/24 09:48:53;;;;;;;7.13;5.22;;;14.60;99.90;;;;;;5048855;28;20021;-87
2022/09/24 09:51:23;;;;;;;10.77;5.72;;;14.60;99.90;;;;;;5042562;28;20975;-88
2022/09/24 09:54:00;;;;;;;10.05;5.80;;;14.60;99.90;;;;;;5055761;28;20032;-86
2022/09/24 09:56:31;;;;;;;7.82;5.47;;;14.60;99.90;;;;;;5040271;28;20090;-87
2022/09/24 09:59:21;;;;;;;7.40;5.70;;;14.60;99.90;;;;;;5046529;28;20059;-87
2022/09/24 10:01:49;;;;;;;6.88;5.20;;;14.60;99.90;;;;;;5040467;28;20040;-87
2022/09/24 10:04:39;;;;;;;11.02;7.60;;;14.60;99.90;;;;;;5044620;28;20032;-87
2022/09/24 10:07:16;;;;;;;7.88;5.95;;;14.60;99.90;;;;;;5041805;28;20051;-88
2022/09/24 10:09:43;;;;;;;9.18;6.07;;;14.60;99.90;;;;;;5063444;28;20025;-87
2022/09/24 10:12:20;;;;;;;12.48;7.50;;;14.60;99.90;;;;;;5059964;28;20093;-88
2022/09/24 10:15:03;;;;;;;9.07;6.03;;;14.60;99.90;;;;;;5050315;28;20020;-87
2022/09/24 10:17:37;;;;;;;9.23;6.40;;;14.70;99.90;;;;;;5042430;28;20051;-89
2022/09/24 10:20:30;;;;;;;9.63;6.70;;;14.60;99.90;;;;;;5051917;28;20017;-89
2022/09/24 10:22:58;;;;;;;11.15;7.05;;;14.70;99.90;;;;;;5046295;28;20395;-88
2022/09/24 10:25:27;;;;;;;9.77;7.03;;;14.70;99.90;;;;;;5056729;28;20116;-89
2022/09/24 10:30:32;;;;;;;10.75;6.38;;;14.70;99.90;;;;;;5073069;22;20046;-84
2022/09/24 10:30:55;;;;;;;8.23;6.32;;;14.70;99.90;;;;;;5082000;28;20016;-85
2022/09/24 10:33:21;;;;;;;9.85;7.25;;;14.70;99.90;;;;;;5064144;28;21032;-85
2022/09/24 10:35:47;;;;;;;9.15;6.93;;;14.70;99.90;;;;;;5062236;28;20032;-84
2022/09/24 10:38:19;;;;;;;8.38;6.53;;;14.70;99.90;;;;;;5056203;28;20048;-85
2022/09/24 10:40:46;;;;;;;14.45;8.18;;;14.70;99.90;;;;;;5046111;28;20025;-85
2022/09/24 10:43:20;;;;;;;11.35;6.82;;;14.70;99.90;;;;;;5070328;28;20219;-84
2022/09/24 10:46:09;;;;;;;9.77;7.30;;;14.70;99.90;;;;;;5066400;28;20381;-86
2022/09/24 10:48:38;;;;;;;10.13;7.32;;;14.70;99.90;;;;;;5063700;28;20401;-85
2022/09/24 10:51:23;;;;;;;11.60;8.07;;;14.70;99.90;;;;;;5051580;28;20077;-85
2022/09/24 10:53:58;;;;;;;11.65;7.03;;;14.70;99.90;;;;;;5045994;28;20620;-85
2022/09/24 10:56:36;;;;;;;11.68;7.85;;;14.70;99.90;;;;;;5068142;28;20131;-84
2022/09/24 10:59:30;;;;;;;10.50;7.70;;;14.70;99.90;;;;;;5051354;28;20146;-85
2022/09/24 11:02:06;;;;;;;10.75;8.05;;;14.70;99.90;;;;;;5015881;28;20037;-85
2022/09/24 11:04:59;;;;;;;11.35;7.72;;;14.70;99.90;;;;;;5048510;28;20029;-83
2022/09/24 11:07:51;;;;;;;10.40;7.45;;;14.70;99.90;;;;;;5042076;28;20025;-85
2022/09/24 11:10:19;;;;;;;13.68;7.28;;;14.70;99.90;;;;;;5057878;28;20036;-85
2022/09/24 11:13:18;;;;;;;11.07;8.32;;;14.70;99.90;;;;;;5047151;28;20029;-84
2022/09/24 11:15:53;;;;;;;14.23;8.50;;;14.70;99.90;;;;;;5028597;28;20045;-86
2022/09/24 11:18:46;;;;;;;14.52;8.15;;;14.70;99.90;;;;;;5048721;28;20059;-85
2022/09/24 11:21:38;;;;;;;11.73;8.13;;;14.80;99.90;;;;;;5063346;28;20035;-85
2022/09/24 11:24:25;;;;;;;10.57;7.38;;;14.70;99.90;;;;;;5046642;28;20425;-85
2022/09/24 11:27:06;;;;;;;13.85;9.75;;;14.80;99.90;;;;;;5065544;28;20074;-85
2022/09/24 11:29:40;;;;;;;10.57;7.15;;;14.70;99.90;;;;;;5045923;28;20586;-85
2022/09/24 11:32:17;;;;;;;13.18;8.57;;;14.70;99.90;;;;;;5065817;28;20024;-85
2022/09/24 11:35:05;;;;;;;10.98;8.10;;;14.70;99.90;;;;;;5043009;28;20061;-85
2022/09/24 11:37:30;;;;;;;11.45;7.72;;;14.70;99.90;;;;;;5064109;28;20121;-85
2022/09/24 11:40:22;;;;;;;16.85;9.00;;;14.70;99.90;;;;;;5050227;28;20017;-85
2022/09/24 11:43:14;;;;;;;14.65;8.10;;;14.70;99.90;;;;;;5038147;28;20036;-84
2022/09/24 11:46:11;;;;;;;17.33;9.80;;;14.70;99.90;;;;;;5041301;28;20025;-85
2022/09/24 11:48:45;;;;;;;13.18;8.95;;;14.70;99.90;;;;;;5065008;28;20028;-85
2022/09/24 11:51:52;;;;;;;13.63;8.60;;;14.70;99.90;;;;;;5045954;28;20033;-85
2022/09/24 11:54:23;;;;;;;11.48;8.45;;;14.70;99.90;;;;;;5040444;28;20021;-85
2022/09/24 11:56:56;;;;;;;13.60;8.48;;;14.70;99.90;;;;;;5064756;28;20028;-84
2022/09/24 11:59:37;;;;;;;11.95;8.65;;;14.70;99.90;;;;;;5061863;28;20017;-85
2022/09/24 12:02:18;;;;;;;12.48;8.93;;;14.70;99.90;;;;;;5060370;28;20398;-83
2022/09/24 12:04:59;;;;;;;14.82;9.20;;;14.80;99.90;;;;;;5038536;28;20090;-85
2022/09/24 12:07:46;;;;;;;13.02;9.75;;;14.70;99.90;;;;;;5064502;28;20032;-85
2022/09/24 12:10:51;;;;;;;14.10;8.98;;;14.70;99.90;;;;;;5059933;28;20021;-84
2022/09/24 12:13:27;;;;;;;12.60;9.63;;;14.70;99.90;;;;;;4950870;28;20058;-85
2022/09/24 12:15:57;;;;;;;11.98;8.48;;;14.70;99.90;;;;;;5033400;28;20037;-84
2022/09/24 12:18:58;;;;;;;18.73;10.57;;;14.70;99.90;;;;;;5067156;28;20032;-84
2022/09/24 12:21:33;;;;;;;14.55;9.02;;;14.80;99.90;;;;;;5051585;28;20020;-85
2022/09/24 12:24:08;;;;;;;12.90;8.82;;;14.70;99.90;;;;;;5046605;28;20147;-85
2022/09/24 12:26:36;;;;;;;10.65;8.57;;;14.80;99.90;;;;;;5067874;28;20530;-85
2022/09/24 12:32:56;;;;;;;18.83;11.88;;;14.80;99.90;;;;;;5070146;28;20044;-87
2022/09/24 12:35:46;;;;;;;20.83;11.90;;;14.90;99.90;;;;;;5073839;28;20029;-91
2022/09/24 12:38:17;;;;;;;25.48;13.55;;;15.10;99.90;;;;;;5047319;28;20024;-86
2022/09/24 12:41:15;;;;;;;22.55;13.05;;;15.20;99.90;;;;;;5047971;28;20032;-87
2022/09/24 12:43:46;;;;;;;26.10;15.05;;;15.20;99.90;;;;;;5062335;28;20452;-86
2022/09/24 12:46:20;;;;;;;34.10;14.48;;;15.30;99.90;;;;;;5068356;28;20146;-86
2022/09/24 12:48:48;;;;;;;23.00;14.93;;;15.30;99.90;;;;;;5067630;28;20073;-87
2022/09/24 12:51:15;;;;;;;24.08;14.82;;;15.40;99.90;;;;;;5055156;28;20029;-86
2022/09/24 12:53:42;;;;;;;27.13;15.48;;;15.40;99.90;;;;;;5074437;28;20467;-86
2022/09/24 12:56:09;;;;;;;28.48;15.88;;;15.40;99.90;;;;;;5052116;28;20048;-87
2022/09/24 12:58:43;;;;;;;23.65;13.57;;;15.40;99.90;;;;;;5074174;28;20024;-86
2022/09/24 13:01:29;;;;;;;23.38;15.90;;;15.40;99.90;;;;;;5071499;28;20020;-87
2022/09/24 13:04:13;;;;;;;24.73;13.73;;;15.40;99.90;;;;;;5062691;28;20024;-86
2022/09/24 13:06:40;;;;;;;20.95;14.13;;;15.40;99.90;;;;;;5062546;28;20486;-87
2022/09/24 13:09:33;;;;;;;23.27;14.45;;;15.50;99.90;;;;;;5055966;28;20032;-86
2022/09/24 13:12:20;;;;;;;29.20;14.30;;;15.50;99.90;;;;;;5068102;28;20096;-86
2022/09/24 13:15:03;;;;;;;26.20;15.80;;;15.50;99.90;;;;;;5061257;28;20275;-86
2022/09/24 13:17:33;;;;;;;24.27;14.43;;;15.50;99.90;;;;;;5068429;28;20151;-87
2022/09/24 13:20:07;;;;;;;20.58;14.07;;;15.50;99.90;;;;;;5055100;28;20055;-86